Time;durP1;ratioP1;P1;durP2;ratioP2;P2;SDS_P1;SDS_P2;PMS_P1;PMS_P2;Temp;Humidity;BMP_temperature;BMP_pressure;BME280_temperature;BME280_humidity;BME280_pressure;Samples;Min_cycle;Max_cycle;Signal;HPM_P1;HPM_P2
2021/03/19 00:01:23;;;;;;;27.10;17.03;;;5.70;57.30;;;;;;5116105;28;20541;-65
2021/03/19 00:03:49;;;;;;;26.00;16.57;;;5.60;57.30;;;;;;5116464;28;20095;-65
2021/03/19 00:06:14;;;;;;;27.83;17.17;;;5.60;57.50;;;;;;5116442;28;20054;-65
2021/03/19 00:08:40;;;;;;;28.40;16.53;;;5.50;57.60;;;;;;5116006;28;20023;-65
2021/03/19 00:11:06;;;;;;;22.73;15.70;;;5.50;57.80;;;;;;5116361;28;20027;-65
2021/03/19 00:13:31;;;;;;;23.53;14.97;;;5.40;58.20;;;;;;5116163;28;20036;-65
2021/03/19 00:15:57;;;;;;;19.50;13.57;;;5.40;58.20;;;;;;5115660;28;20380;-65
2021/03/19 00:18:23;;;;;;;22.30;13.87;;;5.40;58.20;;;;;;5115790;28;20030;-65
2021/03/19 00:20:49;;;;;;;22.30;14.00;;;5.40;58.10;;;;;;5116040;28;20043;-65
2021/03/19 00:23:15;;;;;;;23.50;14.47;;;5.40;58.10;;;;;;5115817;28;20472;-65
2021/03/19 00:25:42;;;;;;;20.83;13.50;;;5.40;58.40;;;;;;5115713;28;20024;-65
2021/03/19 00:28:13;;;;;;;29.87;16.07;;;5.40;58.40;;;;;;5115625;28;20038;-65
2021/03/19 00:30:39;;;;;;;24.13;15.47;;;5.30;58.20;;;;;;5115441;28;20020;-65
2021/03/19 00:33:08;;;;;;;22.30;15.57;;;5.30;58.10;;;;;;5115556;28;20043;-65
2021/03/19 00:35:33;;;;;;;23.70;15.73;;;5.20;58.30;;;;;;5115590;28;20028;-65
2021/03/19 00:37:59;;;;;;;24.73;15.90;;;5.20;58.50;;;;;;5115389;28;20035;-65
2021/03/19 00:40:25;;;;;;;23.07;15.00;;;5.20;58.40;;;;;;5115753;28;20423;-65
2021/03/19 00:42:51;;;;;;;23.33;14.40;;;5.10;58.50;;;;;;5115632;28;20036;-65
2021/03/19 00:45:18;;;;;;;24.87;14.97;;;5.10;58.40;;;;;;5115658;28;20023;-65
2021/03/19 00:47:43;;;;;;;27.20;15.47;;;5.00;58.60;;;;;;5115701;28;20026;-65
2021/03/19 00:50:20;;;;;;;20.50;14.27;;;5.00;59.00;;;;;;5115595;28;20019;-65
2021/03/19 00:52:46;;;;;;;23.67;14.60;;;5.00;59.10;;;;;;5115205;28;20038;-65
2021/03/19 00:55:13;;;;;;;24.30;14.10;;;5.00;59.20;;;;;;5115488;28;20032;-65
2021/03/19 00:57:39;;;;;;;24.87;14.57;;;4.90;59.30;;;;;;5115341;28;20024;-65
2021/03/19 01:00:07;;;;;;;23.00;14.00;;;5.00;59.60;;;;;;5115054;28;20411;-65
2021/03/19 01:02:33;;;;;;;20.73;13.93;;;4.90;59.70;;;;;;5114190;28;20031;-65
2021/03/19 01:04:59;;;;;;;23.80;14.13;;;4.90;59.70;;;;;;5115147;28;20392;-65
2021/03/19 01:07:24;;;;;;;21.57;14.43;;;4.90;59.70;;;;;;5115104;28;20024;-65
2021/03/19 01:09:50;;;;;;;25.10;14.07;;;4.90;59.70;;;;;;5114872;28;20115;-66
2021/03/19 01:12:16;;;;;;;23.03;13.30;;;4.90;59.60;;;;;;5114957;28;20395;-65
2021/03/19 01:14:41;;;;;;;24.20;13.20;;;4.90;59.50;;;;;;5115062;28;20392;-65
2021/03/19 01:17:07;;;;;;;23.43;13.03;;;4.90;59.60;;;;;;5115075;28;20030;-65
2021/03/19 01:19:33;;;;;;;21.23;12.67;;;4.90;59.50;;;;;;5114758;28;20027;-65
2021/03/19 01:21:59;;;;;;;20.03;12.90;;;4.90;59.70;;;;;;5115066;28;20022;-65
2021/03/19 01:24:25;;;;;;;20.33;12.03;;;4.90;60.10;;;;;;5114958;28;20019;-65
2021/03/19 01:26:50;;;;;;;21.57;13.40;;;4.80;60.20;;;;;;5114614;28;20023;-65
2021/03/19 01:29:16;;;;;;;25.00;12.80;;;4.80;60.20;;;;;;5114542;28;20424;-65
2021/03/19 01:31:42;;;;;;;21.10;13.57;;;4.80;60.30;;;;;;5114361;28;20035;-65
2021/03/19 01:34:07;;;;;;;22.43;12.73;;;4.80;60.00;;;;;;5114508;28;20110;-65
2021/03/19 01:36:33;;;;;;;17.73;12.30;;;4.80;60.10;;;;;;5114412;28;20111;-65
2021/03/19 01:38:59;;;;;;;22.00;13.70;;;4.80;60.40;;;;;;5114562;28;20027;-65
2021/03/19 01:41:25;;;;;;;20.07;12.43;;;4.80;60.30;;;;;;5113244;28;20024;-65
2021/03/19 01:43:56;;;;;;;21.00;13.53;;;4.80;60.20;;;;;;5114213;28;20080;-65
2021/03/19 01:47:00;;;;;;;22.90;12.53;;;4.70;60.00;;;;;;5114509;28;20190;-65
2021/03/19 01:50:03;;;;;;;23.70;13.00;;;4.80;60.10;;;;;;5114627;28;20038;-65
2021/03/19 01:53:06;;;;;;;18.73;12.05;;;4.70;59.90;;;;;;5114280;28;20068;-65
2021/03/19 01:56:09;;;;;;;15.20;9.20;;;4.70;59.90;;;;;;5114173;28;20027;-65
2021/03/19 01:59:11;;;;;;;14.05;7.93;;;4.70;59.90;;;;;;5111991;28;20523;-65
2021/03/19 02:02:14;;;;;;;13.27;8.30;;;4.60;59.80;;;;;;5111180;28;20109;-65
2021/03/19 02:05:17;;;;;;;13.63;8.48;;;4.60;59.90;;;;;;5112179;28;20077;-65
2021/03/19 02:08:20;;;;;;;13.23;8.55;;;4.60;60.00;;;;;;5113607;28;20076;-65
2021/03/19 02:11:23;;;;;;;11.57;7.70;;;4.60;60.10;;;;;;5113866;28;20027;-65
2021/03/19 02:14:26;;;;;;;13.55;8.18;;;4.60;60.50;;;;;;5113388;28;20491;-65
2021/03/19 02:17:29;;;;;;;12.32;7.45;;;4.60;60.40;;;;;;5113465;28;20024;-65
2021/03/19 02:20:32;;;;;;;13.63;6.97;;;4.50;60.10;;;;;;5113001;28;20027;-65
2021/03/19 02:23:35;;;;;;;11.07;6.93;;;4.50;59.90;;;;;;5113583;28;20039;-65
2021/03/19 02:26:38;;;;;;;9.38;6.40;;;4.40;60.20;;;;;;5113506;28;20279;-65
2021/03/19 02:29:40;;;;;;;11.60;7.25;;;4.40;60.20;;;;;;5113312;28;20051;-65
2021/03/19 02:32:08;;;;;;;11.40;7.37;;;4.40;60.60;;;;;;5113544;28;20121;-65
2021/03/19 02:34:53;;;;;;;16.97;9.73;;;4.30;60.20;;;;;;5113511;28;20311;-66
2021/03/19 02:37:29;;;;;;;14.30;10.27;;;4.30;60.10;;;;;;5113296;28;20112;-65
2021/03/19 02:39:55;;;;;;;17.40;10.60;;;4.20;60.00;;;;;;5113354;28;20023;-65
2021/03/19 02:42:25;;;;;;;14.27;10.13;;;4.20;60.10;;;;;;5113534;28;20437;-65
2021/03/19 02:44:51;;;;;;;13.67;9.73;;;4.10;60.10;;;;;;5113112;28;20058;-65
2021/03/19 02:47:18;;;;;;;15.10;9.30;;;4.10;60.10;;;;;;5113244;28;20023;-65
2021/03/19 02:49:44;;;;;;;13.70;9.17;;;4.00;60.20;;;;;;5113134;28;20468;-65
2021/03/19 02:52:09;;;;;;;16.27;9.93;;;4.00;60.30;;;;;;5113005;28;20020;-65
2021/03/19 02:54:35;;;;;;;12.50;8.50;;;4.00;60.40;;;;;;5113195;28;20028;-65
2021/03/19 02:57:01;;;;;;;17.27;8.63;;;4.00;60.50;;;;;;5112961;28;20048;-65
2021/03/19 02:59:27;;;;;;;14.63;8.90;;;4.00;60.60;;;;;;5112847;28;20034;-66
2021/03/19 03:01:52;;;;;;;13.03;8.80;;;4.00;60.70;;;;;;5113095;28;20031;-65
2021/03/19 03:04:21;;;;;;;13.27;8.23;;;3.90;60.40;;;;;;5113264;28;20019;-65
2021/03/19 03:06:50;;;;;;;15.20;8.70;;;3.90;60.30;;;;;;5113210;28;20077;-65
2021/03/19 03:09:19;;;;;;;10.70;7.53;;;3.90;60.40;;;;;;5113102;28;20513;-65
2021/03/19 03:11:46;;;;;;;11.40;6.33;;;3.80;60.40;;;;;;5113443;28;20094;-65
2021/03/19 03:14:17;;;;;;;11.37;5.80;;;3.80;60.40;;;;;;5113181;28;20031;-65
2021/03/19 03:16:43;;;;;;;12.63;6.30;;;3.80;60.30;;;;;;5113352;28;20023;-65
2021/03/19 03:19:13;;;;;;;7.73;5.70;;;3.80;60.50;;;;;;5113135;28;20124;-65
2021/03/19 03:21:39;;;;;;;10.63;6.50;;;3.80;60.50;;;;;;5113065;28;20024;-65
2021/03/19 03:24:05;;;;;;;11.33;6.87;;;3.80;60.50;;;;;;5112991;28;20050;-65
2021/03/19 03:26:31;;;;;;;11.60;8.20;;;3.80;60.50;;;;;;5113203;28;20456;-65
2021/03/19 03:28:57;;;;;;;13.13;7.17;;;3.80;60.50;;;;;;5112970;28;20063;-65
2021/03/19 03:31:23;;;;;;;11.73;7.27;;;3.80;60.80;;;;;;5114557;28;20052;-65
2021/03/19 03:33:49;;;;;;;11.70;7.20;;;3.70;60.80;;;;;;5117001;28;20442;-65
2021/03/19 03:36:15;;;;;;;11.23;8.00;;;3.70;60.60;;;;;;5116952;28;20127;-65
2021/03/19 03:38:41;;;;;;;10.87;7.20;;;3.70;60.70;;;;;;5116849;28;20102;-65
2021/03/19 03:41:11;;;;;;;12.10;7.17;;;3.70;60.60;;;;;;5116787;28;20031;-65
2021/03/19 03:43:37;;;;;;;11.23;7.60;;;3.70;60.60;;;;;;5116880;28;20436;-65
2021/03/19 03:46:05;;;;;;;12.27;7.53;;;3.70;60.90;;;;;;5116615;28;20055;-65
2021/03/19 03:48:33;;;;;;;14.37;7.43;;;3.70;60.80;;;;;;5116828;28;20032;-65
2021/03/19 03:51:01;;;;;;;11.30;7.40;;;3.60;60.70;;;;;;5116773;28;20049;-65
2021/03/19 03:53:28;;;;;;;17.13;7.87;;;3.60;60.70;;;;;;5116607;28;20028;-66
2021/03/19 03:55:54;;;;;;;13.73;7.77;;;3.60;60.70;;;;;;5116595;28;20039;-65
2021/03/19 03:58:21;;;;;;;16.17;8.20;;;3.60;60.70;;;;;;5116309;28;20019;-66
2021/03/19 04:00:47;;;;;;;13.97;8.27;;;3.50;60.80;;;;;;5116657;28;20476;-65
2021/03/19 04:03:14;;;;;;;16.17;8.67;;;3.50;60.80;;;;;;5116262;28;20026;-65
2021/03/19 04:05:43;;;;;;;13.73;8.63;;;3.50;60.90;;;;;;5116525;28;20023;-65
2021/03/19 04:08:11;;;;;;;12.93;8.03;;;3.50;60.90;;;;;;5115076;28;20024;-65
2021/03/19 04:10:38;;;;;;;15.30;8.70;;;3.50;60.90;;;;;;5116159;28;20023;-65
2021/03/19 04:13:05;;;;;;;18.33;9.10;;;3.40;61.00;;;;;;5115954;28;20490;-65
2021/03/19 04:15:32;;;;;;;12.83;8.27;;;3.40;61.00;;;;;;5116212;28;20034;-65
2021/03/19 04:18:00;;;;;;;17.60;9.33;;;3.40;61.10;;;;;;5116091;28;20027;-65
2021/03/19 04:20:27;;;;;;;17.27;8.70;;;3.40;61.10;;;;;;5115767;27;20023;-65
2021/03/19 04:22:54;;;;;;;12.17;8.23;;;3.40;61.20;;;;;;5115969;28;20430;-66
2021/03/19 04:25:21;;;;;;;15.47;8.37;;;3.30;61.00;;;;;;5115969;28;20028;-65
2021/03/19 04:27:59;;;;;;;17.07;8.27;;;3.30;61.10;;;;;;5115889;28;20387;-65
2021/03/19 04:30:36;;;;;;;11.67;6.93;;;3.30;61.20;;;;;;5116066;28;20031;-65
2021/03/19 04:33:02;;;;;;;13.97;7.37;;;3.20;61.10;;;;;;5115622;28;20035;-65
2021/03/19 04:35:28;;;;;;;13.53;7.20;;;3.30;61.40;;;;;;5115833;28;20427;-65
2021/03/19 04:37:59;;;;;;;13.17;7.23;;;3.30;61.40;;;;;;5115763;28;20023;-66
2021/03/19 04:40:26;;;;;;;11.90;7.00;;;3.30;61.50;;;;;;5115720;28;20028;-65
2021/03/19 04:42:54;;;;;;;9.57;6.30;;;3.20;61.30;;;;;;5113941;28;20125;-65
2021/03/19 04:45:21;;;;;;;12.77;7.27;;;3.20;61.30;;;;;;5115596;28;20039;-65
2021/03/19 04:47:47;;;;;;;12.07;7.13;;;3.20;61.40;;;;;;5115655;28;20031;-65
2021/03/19 04:50:14;;;;;;;12.77;7.33;;;3.20;61.40;;;;;;5115478;28;20058;-65
2021/03/19 04:52:40;;;;;;;12.13;7.27;;;3.20;61.30;;;;;;5115393;28;20031;-65
2021/03/19 04:55:08;;;;;;;12.93;7.90;;;3.10;61.10;;;;;;5115344;28;20026;-65
2021/03/19 04:57:34;;;;;;;12.43;7.60;;;3.20;61.10;;;;;;5115269;28;20024;-65
2021/03/19 05:00:00;;;;;;;11.37;6.87;;;3.10;61.10;;;;;;5115291;28;20043;-65
2021/03/19 05:02:36;;;;;;;12.60;7.87;;;3.10;61.20;;;;;;5115461;28;20055;-65
2021/03/19 05:05:03;;;;;;;11.00;6.90;;;3.00;61.10;;;;;;5115344;28;20051;-65
2021/03/19 05:07:28;;;;;;;13.23;7.83;;;3.00;61.10;;;;;;5115161;28;20051;-65
2021/03/19 05:09:54;;;;;;;13.17;7.23;;;3.00;61.10;;;;;;5114896;28;20433;-65
2021/03/19 05:12:20;;;;;;;11.33;6.80;;;2.90;61.10;;;;;;5114799;28;20467;-65
2021/03/19 05:14:45;;;;;;;12.33;7.20;;;2.90;61.40;;;;;;5114815;28;20028;-69
2021/03/19 05:17:12;;;;;;;11.93;6.83;;;2.90;61.60;;;;;;5115041;28;20080;-65
2021/03/19 05:19:38;;;;;;;11.27;7.00;;;2.80;61.60;;;;;;5115125;28;20047;-71
2021/03/19 05:22:04;;;;;;;10.60;6.23;;;2.90;61.60;;;;;;5114814;28;20027;-65
2021/03/19 05:24:30;;;;;;;12.33;7.17;;;2.80;61.80;;;;;;5114540;28;20035;-65
2021/03/19 05:26:55;;;;;;;8.90;6.47;;;2.80;62.00;;;;;;5114771;28;20024;-71
2021/03/19 05:29:21;;;;;;;11.53;7.30;;;2.80;62.00;;;;;;5114729;28;20099;-66
2021/03/19 05:31:47;;;;;;;11.20;6.10;;;2.80;62.10;;;;;;5114793;28;20396;-71
2021/03/19 05:34:13;;;;;;;12.07;6.53;;;2.80;62.30;;;;;;5114663;28;20123;-65
2021/03/19 05:36:39;;;;;;;13.27;6.87;;;2.80;62.30;;;;;;5114788;28;20052;-66
2021/03/19 05:39:06;;;;;;;15.43;7.27;;;2.80;63.00;;;;;;5114620;28;20027;-65
2021/03/19 05:41:34;;;;;;;9.47;6.47;;;2.80;62.40;;;;;;5114482;28;20484;-71
2021/03/19 05:44:07;;;;;;;10.73;6.67;;;2.70;62.30;;;;;;5114546;28;20019;-71
2021/03/19 05:46:43;;;;;;;9.57;6.18;;;2.70;62.40;;;;;;5115211;28;20490;-71
2021/03/19 05:49:09;;;;;;;14.37;7.10;;;2.80;62.40;;;;;;5114366;28;20023;-65
2021/03/19 05:51:35;;;;;;;13.13;6.97;;;2.80;62.50;;;;;;5114429;28;20379;-65
2021/03/19 05:54:21;;;;;;;13.23;6.57;;;2.80;62.40;;;;;;5114035;28;20502;-71
2021/03/19 05:56:52;;;;;;;14.60;6.37;;;2.80;62.80;;;;;;5113933;28;20040;-65
2021/03/19 05:59:17;;;;;;;17.70;7.30;;;2.70;62.70;;;;;;5114343;28;20438;-65
2021/03/19 06:01:43;;;;;;;15.73;7.20;;;2.80;63.00;;;;;;5114221;28;20157;-70
2021/03/19 06:04:19;;;;;;;10.93;7.10;;;2.80;62.90;;;;;;5114187;28;20020;-65
2021/03/19 06:06:48;;;;;;;12.23;7.07;;;2.80;62.90;;;;;;5114105;28;20024;-65
2021/03/19 06:09:25;;;;;;;22.57;8.67;;;2.90;62.90;;;;;;5113713;28;20031;-65
2021/03/19 06:11:56;;;;;;;19.40;8.20;;;2.80;63.00;;;;;;5114072;28;20494;-70
2021/03/19 06:14:23;;;;;;;15.40;7.80;;;2.90;63.40;;;;;;5113978;28;20031;-65
2021/03/19 06:16:51;;;;;;;20.83;9.17;;;2.90;63.20;;;;;;5114229;28;20016;-70
2021/03/19 06:19:29;;;;;;;15.67;9.23;;;2.90;63.20;;;;;;5113852;28;20392;-65
2021/03/19 06:22:13;;;;;;;19.57;8.93;;;3.00;63.30;;;;;;5113609;28;20020;-70
2021/03/19 06:24:39;;;;;;;25.80;8.30;;;3.00;63.50;;;;;;5113818;28;20023;-64
2021/03/19 06:27:20;;;;;;;16.47;8.13;;;3.10;63.60;;;;;;5113527;28;20032;-65
2021/03/19 06:29:51;;;;;;;15.50;8.00;;;3.10;63.60;;;;;;5113636;28;20051;-65
2021/03/19 06:32:19;;;;;;;14.90;7.97;;;3.20;63.60;;;;;;5113152;28;20044;-65
2021/03/19 06:34:54;;;;;;;16.37;8.40;;;3.20;63.50;;;;;;5113420;28;20106;-65
2021/03/19 06:37:42;;;;;;;18.57;8.60;;;3.30;63.30;;;;;;5113527;28;20468;-69
2021/03/19 06:40:38;;;;;;;18.47;7.80;;;3.30;63.20;;;;;;5113260;28;20019;-65
2021/03/19 06:43:23;;;;;;;21.67;9.63;;;3.40;63.20;;;;;;5112412;28;20027;-65
2021/03/19 06:46:09;;;;;;;15.13;9.27;;;3.50;63.00;;;;;;5113622;28;20023;-65
2021/03/19 06:48:43;;;;;;;19.63;7.97;;;3.60;62.90;;;;;;5113537;28;20491;-64
2021/03/19 06:51:29;;;;;;;20.43;7.23;;;3.60;62.60;;;;;;5112431;28;20066;-70
2021/03/19 06:54:07;;;;;;;16.90;7.50;;;3.70;62.50;;;;;;5113205;28;20044;-70
2021/03/19 06:56:34;;;;;;;16.77;7.10;;;3.70;62.50;;;;;;5112287;28;20379;-65
2021/03/19 06:59:20;;;;;;;17.73;7.33;;;3.80;62.80;;;;;;5113474;28;20024;-70
2021/03/19 07:01:46;;;;;;;15.37;6.70;;;3.80;62.50;;;;;;5113162;28;20402;-65
2021/03/19 07:04:12;;;;;;;14.43;7.20;;;3.90;62.20;;;;;;5093241;28;20028;-65
2021/03/19 07:06:37;;;;;;;16.33;7.27;;;4.00;62.20;;;;;;5096855;28;20024;-65
2021/03/19 07:13:03;;;;;;;23.57;8.50;;;4.10;61.90;;;;;;5097805;28;20051;-68
2021/03/19 07:16:06;;;;;;;13.20;7.43;;;4.20;61.80;;;;;;5097010;28;20024;-65
2021/03/19 07:18:34;;;;;;;14.65;7.75;;;4.40;61.70;;;;;;5096838;28;20059;-65
2021/03/19 07:21:14;;;;;;;13.70;7.30;;;4.50;61.50;;;;;;5096939;28;20044;-65
2021/03/19 07:23:58;;;;;;;13.43;7.43;;;4.60;61.50;;;;;;5096997;28;20077;-65
2021/03/19 07:26:31;;;;;;;19.13;8.70;;;4.70;61.60;;;;;;5096680;28;20061;-70
2021/03/19 07:29:11;;;;;;;11.80;7.13;;;4.80;61.50;;;;;;5111092;27;20036;-64
2021/03/19 07:31:55;;;;;;;17.13;7.63;;;4.90;61.40;;;;;;5114060;28;20046;-64
2021/03/19 07:35:05;;;;;;;16.27;6.17;;;5.00;60.90;;;;;;5114529;27;20039;-71
2021/03/19 07:37:55;;;;;;;9.50;5.40;;;5.10;60.20;;;;;;5073878;28;20032;-66
2021/03/19 07:40:39;;;;;;;8.50;5.27;;;5.20;59.50;;;;;;5114695;28;20492;-65
2021/03/19 07:43:42;;;;;;;10.20;5.70;;;5.30;59.20;;;;;;5116728;28;20098;-64
2021/03/19 07:46:24;;;;;;;11.93;4.37;;;5.40;58.70;;;;;;5116698;28;20412;-65
2021/03/19 07:49:11;;;;;;;5.22;3.58;;;5.60;58.00;;;;;;5116465;28;20367;-65
2021/03/19 07:51:56;;;;;;;8.27;4.20;;;5.70;57.10;;;;;;5116453;28;20093;-64
2021/03/19 07:54:43;;;;;;;6.53;4.10;;;5.80;56.50;;;;;;5115877;28;20051;-66
2021/03/19 07:57:28;;;;;;;6.07;4.43;;;5.90;55.90;;;;;;5116066;28;20095;-65
2021/03/19 08:00:16;;;;;;;14.13;7.83;;;6.00;55.80;;;;;;5115990;27;20042;-76
2021/03/19 08:03:00;;;;;;;8.00;4.57;;;6.10;55.40;;;;;;5114892;28;20475;-65
2021/03/19 08:05:28;;;;;;;9.77;4.90;;;6.30;55.00;;;;;;5103830;28;20030;-65
2021/03/19 08:08:24;;;;;;;9.23;4.83;;;6.30;54.30;;;;;;5114394;28;20027;-74
2021/03/19 08:11:31;;;;;;;7.77;4.40;;;6.50;53.70;;;;;;5116167;28;20024;-65
2021/03/19 08:14:23;;;;;;;5.93;4.33;;;6.50;53.40;;;;;;5116109;28;20038;-66
2021/03/19 08:17:16;;;;;;;5.97;4.13;;;6.60;52.20;;;;;;5115157;27;20023;-65
2021/03/19 08:20:08;;;;;;;6.43;3.88;;;6.70;52.40;;;;;;5116287;28;20027;-65
2021/03/19 08:22:41;;;;;;;4.93;3.70;;;6.80;52.30;;;;;;5094665;28;20376;-75
2021/03/19 08:25:27;;;;;;;13.00;4.63;;;6.90;52.10;;;;;;5115825;28;20261;-77
2021/03/19 08:28:20;;;;;;;9.03;4.47;;;7.00;52.20;;;;;;5116003;27;20435;-64
2021/03/19 08:31:01;;;;;;;7.43;4.15;;;7.10;52.00;;;;;;5115786;28;20024;-64
2021/03/19 08:34:00;;;;;;;5.50;3.63;;;7.20;52.00;;;;;;5115888;28;20035;-65
2021/03/19 08:36:45;;;;;;;6.43;4.03;;;7.30;51.70;;;;;;5116029;28;20103;-65
2021/03/19 08:39:38;;;;;;;5.00;3.57;;;7.40;50.10;;;;;;5115651;28;20111;-70
2021/03/19 08:42:05;;;;;;;;;;;7.40;49.10;;;;;;5116177;28;20023;-64
2021/03/19 08:44:38;;;;;;;5.00;3.90;;;7.50;49.30;;;;;;5115530;28;19908;-64
2021/03/19 08:47:23;;;;;;;10.10;3.65;;;7.60;49.80;;;;;;5115593;28;20035;-65
2021/03/19 08:49:54;;;;;;;4.23;3.20;;;7.70;49.50;;;;;;5115565;28;20414;-65
2021/03/19 08:52:28;;;;;;;4.90;3.80;;;7.80;48.80;;;;;;5115386;28;20071;-64
2021/03/19 08:55:12;;;;;;;6.07;3.90;;;7.90;48.20;;;;;;5115122;28;20399;-64
2021/03/19 08:57:40;;;;;;;3.70;3.20;;;8.00;47.50;;;;;;5115354;27;20026;-64
2021/03/19 09:00:25;;;;;;;7.03;4.70;;;8.00;47.60;;;;;;5096095;28;20495;-64
2021/03/19 09:02:52;;;;;;;6.97;3.37;;;8.10;47.90;;;;;;5095150;28;20380;-64
2021/03/19 09:05:23;;;;;;;5.00;3.30;;;8.20;48.10;;;;;;5095050;28;20107;-64
2021/03/19 09:08:10;;;;;;;5.03;3.37;;;8.20;47.40;;;;;;5094484;28;20465;-64
2021/03/19 09:10:36;;;;;;;7.20;3.60;;;8.40;47.30;;;;;;5094737;28;20039;-64
2021/03/19 09:13:08;;;;;;;5.60;3.73;;;8.50;44.40;;;;;;5094508;28;20032;-65
2021/03/19 09:15:36;;;;;;;5.37;3.60;;;8.50;45.80;;;;;;5093358;28;20115;-64
2021/03/19 09:18:08;;;;;;;4.83;3.50;;;8.50;46.20;;;;;;5094483;28;20542;-64
2021/03/19 09:21:00;;;;;;;5.10;3.50;;;8.60;45.30;;;;;;5094267;28;20123;-64
2021/03/19 09:24:00;;;;;;;6.90;3.63;;;8.70;44.90;;;;;;5094524;28;20020;-64
2021/03/19 09:26:46;;;;;;;4.80;3.60;;;8.70;44.70;;;;;;5100638;28;20269;-65
2021/03/19 09:29:15;;;;;;;6.00;3.10;;;8.80;45.50;;;;;;5111742;28;20031;-64
2021/03/19 09:31:54;;;;;;;4.93;3.27;;;8.90;45.90;;;;;;5111711;28;20047;-64
2021/03/19 09:34:43;;;;;;;4.43;3.53;;;9.00;45.70;;;;;;5107491;28;20436;-64
2021/03/19 09:37:08;;;;;;;5.50;3.40;;;9.10;44.80;;;;;;5102558;28;20131;-64
2021/03/19 09:39:49;;;;;;;5.30;3.53;;;9.20;44.40;;;;;;5112271;28;20582;-64
2021/03/19 09:42:18;;;;;;;7.53;3.40;;;9.30;42.70;;;;;;5093992;28;20480;-64
2021/03/19 09:44:52;;;;;;;8.20;3.77;;;9.30;42.80;;;;;;5094274;28;20094;-64
2021/03/19 09:47:22;;;;;;;6.10;3.73;;;9.40;41.60;;;;;;5093917;28;20050;-64
2021/03/19 09:50:01;;;;;;;4.87;3.37;;;9.40;41.70;;;;;;5093971;28;20442;-64
2021/03/19 09:52:27;;;;;;;4.80;3.53;;;9.40;42.10;;;;;;5091842;28;20400;-66
2021/03/19 09:54:53;;;;;;;4.47;3.20;;;9.40;42.20;;;;;;5094409;28;20032;-74
2021/03/19 09:57:21;;;;;;;4.10;3.00;;;9.50;42.00;;;;;;5113882;28;20024;-64
2021/03/19 10:00:03;;;;;;;4.03;2.97;;;9.60;42.20;;;;;;5113376;28;20378;-64
2021/03/19 10:02:38;;;;;;;3.60;2.73;;;9.70;42.40;;;;;;5113649;28;20030;-74
2021/03/19 10:05:20;;;;;;;3.73;2.70;;;9.70;42.30;;;;;;5113502;28;20418;-73
2021/03/19 10:07:49;;;;;;;3.97;2.47;;;9.80;41.30;;;;;;5113322;28;20522;-64
2021/03/19 10:10:42;;;;;;;3.80;2.90;;;9.90;42.40;;;;;;5113673;28;20024;-74
2021/03/19 10:13:15;;;;;;;4.45;2.90;;;10.00;42.60;;;;;;5111716;28;20088;-73
2021/03/19 10:15:42;;;;;;;3.35;2.60;;;10.10;39.70;;;;;;5113555;28;20080;-67
2021/03/19 10:18:19;;;;;;;5.47;2.93;;;10.20;39.40;;;;;;5113683;28;20019;-65
2021/03/19 10:20:52;;;;;;;3.20;2.40;;;10.20;39.60;;;;;;5113372;28;20011;-74
2021/03/19 10:23:28;;;;;;;6.17;2.53;;;10.20;39.20;;;;;;5113284;28;20472;-70
2021/03/19 10:26:24;;;;;;;6.30;2.47;;;10.30;39.60;;;;;;5113232;28;20036;-71
2021/03/19 10:29:12;;;;;;;3.47;2.60;;;10.30;40.10;;;;;;5112502;28;20026;-64
2021/03/19 10:31:49;;;;;;;3.23;2.37;;;10.40;39.30;;;;;;5113565;28;20560;-64
2021/03/19 10:34:38;;;;;;;4.47;2.70;;;10.50;39.90;;;;;;5113902;28;20476;-64
2021/03/19 10:37:04;;;;;;;3.17;2.40;;;10.60;39.20;;;;;;5113770;28;20061;-64
2021/03/19 10:39:35;;;;;;;5.77;2.47;;;10.70;38.90;;;;;;5113095;28;20027;-64
2021/03/19 10:42:22;;;;;;;4.17;2.70;;;10.80;39.60;;;;;;5112569;28;20425;-64
2021/03/19 10:45:08;;;;;;;4.07;2.50;;;10.90;38.40;;;;;;5113409;28;20024;-64
2021/03/19 10:48:06;;;;;;;4.67;2.50;;;11.00;36.70;;;;;;5113525;28;20012;-64
2021/03/19 10:50:50;;;;;;;5.33;2.60;;;11.00;38.50;;;;;;5113151;28;20034;-65
2021/03/19 10:53:19;;;;;;;3.13;2.30;;;11.00;37.90;;;;;;5129892;28;20363;-65
2021/03/19 10:55:48;;;;;;;3.83;2.80;;;11.10;38.70;;;;;;5133818;28;20023;-65
2021/03/19 10:58:31;;;;;;;5.47;3.10;;;11.20;36.50;;;;;;5133794;28;20031;-64
2021/03/19 11:00:57;;;;;;;3.35;2.47;;;11.10;36.30;;;;;;5133595;28;20019;-64
2021/03/19 11:03:31;;;;;;;3.47;2.50;;;11.10;36.90;;;;;;5113393;28;20084;-65
2021/03/19 11:06:08;;;;;;;4.33;2.63;;;11.20;36.00;;;;;;5113179;28;20019;-64
2021/03/19 11:08:36;;;;;;;4.00;2.20;;;11.20;36.60;;;;;;5113194;28;20487;-64
2021/03/19 11:11:03;;;;;;;4.93;2.77;;;11.20;37.30;;;;;;5113358;28;20076;-64
2021/03/19 11:13:33;;;;;;;3.30;2.40;;;11.10;37.70;;;;;;5113155;28;20104;-64
2021/03/19 11:16:02;;;;;;;4.03;2.87;;;11.10;37.70;;;;;;5113258;28;20548;-64
2021/03/19 11:18:36;;;;;;;3.80;2.93;;;11.10;37.40;;;;;;5113236;28;20107;-65
2021/03/19 11:21:11;;;;;;;4.30;3.10;;;11.20;37.00;;;;;;5113421;28;20023;-64
2021/03/19 11:24:05;;;;;;;4.63;2.80;;;11.30;37.70;;;;;;5117212;28;20035;-64
2021/03/19 11:26:34;;;;;;;3.93;2.87;;;11.30;36.60;;;;;;5133223;27;20026;-64
2021/03/19 11:29:18;;;;;;;3.67;2.57;;;11.40;36.90;;;;;;5133484;28;20027;-64
2021/03/19 11:32:05;;;;;;;2.92;2.42;;;11.50;37.50;;;;;;5133424;28;20551;-64
2021/03/19 11:34:39;;;;;;;5.07;2.80;;;11.60;37.00;;;;;;5133388;28;20092;-75
2021/03/19 11:37:21;;;;;;;5.67;2.87;;;11.70;36.20;;;;;;5133484;28;20085;-64
2021/03/19 11:39:49;;;;;;;3.55;2.85;;;11.80;37.30;;;;;;5133877;28;20436;-74
2021/03/19 11:42:18;;;;;;;2.50;2.05;;;11.90;37.40;;;;;;5133556;28;20035;-64
2021/03/19 11:44:47;;;;;;;4.45;2.80;;;11.90;36.70;;;;;;5133531;28;20440;-64
2021/03/19 11:47:36;;;;;;;3.57;2.60;;;11.80;35.60;;;;;;5133779;28;20493;-65
2021/03/19 11:50:20;;;;;;;3.97;2.40;;;11.60;35.20;;;;;;5133594;28;20033;-65
2021/03/19 11:52:48;;;;;;;3.03;2.43;;;11.40;35.20;;;;;;5135525;27;20035;-65
2021/03/19 11:55:22;;;;;;;3.17;2.33;;;11.30;36.80;;;;;;5137243;27;20106;-64
2021/03/19 11:57:49;;;;;;;7.38;2.28;;;11.20;36.80;;;;;;5136028;27;20357;-65
2021/03/19 12:00:20;;;;;;;2.17;1.50;;;11.10;35.10;;;;;;5134434;27;20124;-64
2021/03/19 12:02:48;;;;;;;2.30;1.60;;;10.90;34.20;;;;;;5134121;27;20023;-64
2021/03/19 12:05:14;;;;;;;7.13;1.90;;;10.80;34.40;;;;;;5136603;27;20035;-64
2021/03/19 12:07:40;;;;;;;1.93;1.40;;;10.70;34.70;;;;;;5137080;27;20115;-64
2021/03/19 12:10:08;;;;;;;4.60;1.90;;;10.60;35.00;;;;;;5137078;27;20027;-64
2021/03/19 12:12:34;;;;;;;2.73;1.90;;;10.60;35.20;;;;;;5136482;27;20027;-64
2021/03/19 12:15:00;;;;;;;5.10;1.77;;;10.50;35.10;;;;;;5136887;27;20038;-74
2021/03/19 12:17:26;;;;;;;3.00;2.10;;;10.50;35.50;;;;;;5136785;27;20023;-65
2021/03/19 12:19:52;;;;;;;2.43;1.90;;;10.50;35.60;;;;;;5136661;27;20032;-65
2021/03/19 12:22:20;;;;;;;3.10;2.10;;;10.40;36.50;;;;;;5136869;27;20076;-73
2021/03/19 12:24:46;;;;;;;3.37;1.90;;;10.40;35.10;;;;;;5133384;27;20031;-72
2021/03/19 12:27:13;;;;;;;5.00;2.10;;;10.30;34.80;;;;;;5133841;27;20078;-64
2021/03/19 12:29:38;;;;;;;2.60;1.93;;;10.30;35.50;;;;;;5134502;27;20403;-64
2021/03/19 12:32:05;;;;;;;3.07;2.27;;;10.30;35.40;;;;;;5135731;27;20040;-64
2021/03/19 12:34:31;;;;;;;3.50;2.03;;;10.20;35.80;;;;;;5136376;27;20035;-65
2021/03/19 12:36:57;;;;;;;2.93;2.13;;;10.30;34.80;;;;;;5136224;27;20110;-65
2021/03/19 12:39:23;;;;;;;4.03;1.80;;;10.40;34.70;;;;;;5136312;27;20106;-65
2021/03/19 12:41:49;;;;;;;3.60;2.13;;;10.50;35.00;;;;;;5136632;27;20023;-65
2021/03/19 12:44:16;;;;;;;2.73;1.83;;;10.60;34.40;;;;;;5136230;27;20382;-64
2021/03/19 12:46:42;;;;;;;3.40;2.10;;;10.50;33.90;;;;;;5135928;27;20034;-64
2021/03/19 12:49:08;;;;;;;2.90;1.60;;;10.60;34.80;;;;;;5135800;27;20019;-64
2021/03/19 12:51:34;;;;;;;3.03;1.90;;;10.60;34.60;;;;;;5136331;27;20019;-64
2021/03/19 12:54:01;;;;;;;3.10;2.10;;;10.60;35.00;;;;;;5135674;27;20493;-71
2021/03/19 12:56:26;;;;;;;2.73;2.13;;;10.60;35.10;;;;;;5135856;27;20029;-73
2021/03/19 12:58:52;;;;;;;5.67;2.43;;;10.70;36.10;;;;;;5135881;27;20027;-65
2021/03/19 13:01:21;;;;;;;3.40;2.30;;;10.80;37.10;;;;;;5135472;27;20152;-65
2021/03/19 13:03:49;;;;;;;4.37;2.97;;;11.00;38.60;;;;;;5135232;27;20483;-65
2021/03/19 13:06:25;;;;;;;4.03;2.47;;;11.10;39.60;;;;;;5126810;27;20020;-65
2021/03/19 13:08:51;;;;;;;4.18;2.30;;;11.10;39.80;;;;;;5114897;28;20042;-65
2021/03/19 13:11:17;;;;;;;3.10;2.13;;;11.20;39.50;;;;;;5115724;28;20036;-65
2021/03/19 13:13:43;;;;;;;4.78;1.77;;;11.20;39.10;;;;;;5106316;28;20065;-72
2021/03/19 13:16:09;;;;;;;3.47;1.98;;;11.30;39.20;;;;;;5094734;28;20020;-74
2021/03/19 13:18:36;;;;;;;6.67;2.03;;;11.20;38.70;;;;;;5095108;28;20031;-65
2021/03/19 13:21:02;;;;;;;5.40;2.00;;;11.10;39.20;;;;;;5094503;28;20460;-64
2021/03/19 13:23:28;;;;;;;3.43;1.90;;;11.10;39.10;;;;;;5094742;28;20030;-64
2021/03/19 13:25:54;;;;;;;3.53;2.60;;;11.00;39.00;;;;;;5094524;28;20098;-64